TimeCDT,TemperatureF,Dew PointF,Humidity,Sea Level PressureIn,VisibilityMPH,Wind Direction,Wind SpeedMPH,Gust SpeedMPH,PrecipitationIn,Events,Conditions,WindDirDegrees,DateUTC
12:15 AM,72.5,65.3,78,30.14,10.0,South,5.8,-,N/A,,Clear,170,2013-08-25 05:15:00
12:35 AM,72.5,65.3,78,30.13,10.0,South,5.8,-,N/A,,Clear,170,2013-08-25 05:35:00
12:55 AM,72.3,65.3,78,30.13,10.0,South,4.6,-,N/A,,Scattered Clouds,180,2013-08-25 05:55:00
1:15 AM,73.0,65.7,78,30.14,10.0,South,8.1,-,N/A,,Mostly Cloudy,190,2013-08-25 06:15:00
1:35 AM,73.4,65.7,77,30.13,10.0,South,6.9,-,N/A,,Mostly Cloudy,180,2013-08-25 06:35:00
1:55 AM,73.4,65.7,77,30.13,10.0,South,6.9,-,N/A,,Scattered Clouds,180,2013-08-25 06:55:00
2:15 AM,73.4,65.7,77,30.13,10.0,South,5.8,-,N/A,,Scattered Clouds,180,2013-08-25 07:15:00
2:35 AM,73.0,65.8,78,30.14,10.0,South,6.9,-,N/A,,Clear,170,2013-08-25 07:35:00
2:55 AM,73.0,65.8,78,30.13,10.0,South,8.1,-,N/A,,Clear,180,2013-08-25 07:55:00
3:15 AM,73.0,65.8,78,30.14,10.0,South,6.9,-,N/A,,Clear,190,2013-08-25 08:15:00
3:35 AM,73.0,65.8,78,30.14,10.0,South,5.8,-,N/A,,Clear,180,2013-08-25 08:35:00
3:55 AM,73.0,65.8,78,30.13,10.0,South,6.9,-,N/A,,Clear,180,2013-08-25 08:55:00
4:15 AM,72.7,65.8,79,30.14,10.0,South,4.6,-,N/A,,Clear,190,2013-08-25 09:15:00
4:35 AM,72.5,65.7,79,30.14,10.0,South,4.6,-,N/A,,Clear,180,2013-08-25 09:35:00
4:55 AM,72.0,65.7,80,30.14,10.0,South,5.8,-,N/A,,Clear,180,2013-08-25 09:55:00
5:15 AM,71.8,65.5,80,30.13,10.0,South,6.9,-,N/A,,Clear,190,2013-08-25 10:15:00
5:35 AM,71.4,65.3,81,30.14,10.0,SSW,4.6,-,N/A,,Clear,200,2013-08-25 10:35:00
5:55 AM,71.2,65.3,81,30.14,10.0,South,8.1,-,N/A,,Clear,190,2013-08-25 10:55:00
6:15 AM,71.2,65.3,81,30.14,10.0,South,5.8,-,N/A,,Clear,190,2013-08-25 11:15:00
6:35 AM,71.6,65.7,81,30.14,10.0,SSW,5.8,-,N/A,,Clear,200,2013-08-25 11:35:00
6:55 AM,72.1,66.2,82,30.15,10.0,South,4.6,-,N/A,,Clear,190,2013-08-25 11:55:00
7:15 AM,73.8,66.4,78,30.16,10.0,SSW,4.6,-,N/A,,Clear,200,2013-08-25 12:15:00
7:35 AM,75.7,66.9,74,30.15,10.0,South,5.8,-,N/A,,Clear,190,2013-08-25 12:35:00
7:55 AM,76.3,67.3,74,30.15,10.0,SSW,6.9,-,N/A,,Clear,210,2013-08-25 12:55:00
8:15 AM,76.3,67.3,74,30.15,10.0,SSW,6.9,-,N/A,,Clear,200,2013-08-25 13:15:00
8:35 AM,78.1,67.3,69,30.15,10.0,SSW,8.1,-,N/A,,Clear,200,2013-08-25 13:35:00
8:55 AM,78.8,67.5,68,30.14,10.0,SSW,12.7,16.1,N/A,,Clear,200,2013-08-25 13:55:00
9:15 AM,78.8,67.6,68,30.14,10.0,SSW,5.8,-,N/A,,Clear,200,2013-08-25 14:15:00
9:35 AM,80.1,68.0,67,30.14,10.0,SSW,8.1,-,N/A,,Clear,210,2013-08-25 14:35:00
9:55 AM,81.5,68.2,64,30.13,10.0,SSW,9.2,-,N/A,,Clear,210,2013-08-25 14:55:00
10:15 AM,83.5,67.8,59,30.13,10.0,SW,10.4,16.1,N/A,,Clear,220,2013-08-25 15:15:00
10:35 AM,84.7,68.0,57,30.13,10.0,SW,8.1,-,N/A,,Clear,220,2013-08-25 15:35:00
10:55 AM,86.9,68.2,54,30.12,10.0,WSW,15.0,20.7,N/A,,Clear,240,2013-08-25 15:55:00
11:15 AM,88.7,67.1,49,30.11,10.0,WSW,17.3,25.3,N/A,,Clear,240,2013-08-25 16:15:00
11:35 AM,90.1,67.5,47,30.10,10.0,WSW,17.3,24.2,N/A,,Clear,240,2013-08-25 16:35:00
11:55 AM,91.4,67.1,45,30.10,10.0,WSW,17.3,23.0,N/A,,Clear,240,2013-08-25 16:55:00
12:15 PM,91.4,66.7,44,30.09,10.0,SW,18.4,24.2,N/A,,Clear,230,2013-08-25 17:15:00
12:35 PM,93.0,66.2,41,30.09,10.0,WSW,16.1,21.9,N/A,,Clear,250,2013-08-25 17:35:00
12:55 PM,93.4,65.5,40,30.08,10.0,WSW,18.4,25.3,N/A,,Clear,240,2013-08-25 17:55:00
1:15 PM,94.1,64.9,38,30.07,10.0,WSW,16.1,25.3,N/A,,Clear,250,2013-08-25 18:15:00
1:35 PM,95.5,64.8,36,30.06,10.0,WSW,16.1,20.7,N/A,,Clear,240,2013-08-25 18:35:00
1:55 PM,95.9,65.1,36,30.06,10.0,SW,15.0,26.5,N/A,,Clear,220,2013-08-25 18:55:00
2:15 PM,96.3,64.4,35,30.05,10.0,SSW,17.3,23.0,N/A,,Clear,210,2013-08-25 19:15:00
2:35 PM,95.9,64.0,35,30.04,10.0,SW,18.4,23.0,N/A,,Clear,220,2013-08-25 19:35:00
2:55 PM,96.1,63.5,34,30.04,10.0,SW,16.1,24.2,N/A,,Clear,230,2013-08-25 19:55:00
3:15 PM,95.9,63.5,34,30.04,10.0,SW,12.7,20.7,N/A,,Clear,230,2013-08-25 20:15:00
3:35 PM,95.5,64.6,36,30.03,10.0,SSW,12.7,-,N/A,,Clear,200,2013-08-25 20:35:00
3:55 PM,96.8,63.9,34,30.03,10.0,SSW,15.0,19.6,N/A,,Clear,210,2013-08-25 20:55:00
4:15 PM,95.9,63.7,34,30.03,10.0,SSW,13.8,20.7,N/A,,Clear,210,2013-08-25 21:15:00
4:35 PM,95.9,63.9,35,30.03,10.0,SSW,11.5,-,N/A,,Clear,200,2013-08-25 21:35:00
4:55 PM,95.5,65.1,37,30.03,10.0,SSW,16.1,20.7,N/A,,Clear,210,2013-08-25 21:55:00
5:15 PM,94.1,64.8,38,30.03,10.0,SSW,11.5,-,N/A,,Clear,210,2013-08-25 22:15:00
5:35 PM,93.9,64.9,38,30.03,10.0,SSW,16.1,20.7,N/A,,Clear,210,2013-08-25 22:35:00
5:55 PM,92.7,65.1,40,30.04,10.0,SSW,11.5,16.1,N/A,,Clear,210,2013-08-25 22:55:00
6:15 PM,92.3,66.6,43,30.03,10.0,SSW,11.5,16.1,N/A,,Clear,210,2013-08-25 23:15:00
6:35 PM,90.9,66.2,44,30.03,10.0,SW,10.4,-,N/A,,Clear,220,2013-08-25 23:35:00
6:55 PM,89.8,66.9,47,30.04,10.0,SSW,8.1,-,N/A,,Clear,210,2013-08-25 23:55:00
7:15 PM,87.4,67.5,51,30.04,10.0,SSW,4.6,-,N/A,,Clear,210,2013-08-26 00:15:00
7:35 PM,86.2,67.3,53,30.04,10.0,SSW,9.2,-,N/A,,Clear,210,2013-08-26 00:35:00
7:55 PM,85.1,67.5,55,30.05,10.0,SSW,8.1,-,N/A,,Clear,210,2013-08-26 00:55:00
8:15 PM,85.3,67.1,54,30.05,10.0,SW,9.2,-,N/A,,Clear,220,2013-08-26 01:15:00
8:35 PM,84.4,67.5,57,30.05,10.0,SSW,8.1,-,N/A,,Clear,210,2013-08-26 01:35:00
8:55 PM,83.1,68.0,60,30.06,10.0,SSW,6.9,-,N/A,,Clear,210,2013-08-26 01:55:00
9:15 PM,83.3,68.2,60,30.06,10.0,SW,6.9,-,N/A,,Clear,220,2013-08-26 02:15:00
9:35 PM,82.4,68.4,62,30.06,10.0,SW,8.1,-,N/A,,Clear,220,2013-08-26 02:35:00
9:55 PM,82.4,68.5,63,30.06,10.0,SW,9.2,-,N/A,,Clear,220,2013-08-26 02:55:00
10:15 PM,81.7,68.5,64,30.06,10.0,SW,8.1,-,N/A,,Clear,220,2013-08-26 03:15:00
10:35 PM,81.5,69.1,66,30.07,10.0,SW,6.9,-,N/A,,Clear,230,2013-08-26 03:35:00
10:55 PM,80.6,68.0,65,30.06,10.0,SW,8.1,-,N/A,,Clear,220,2013-08-26 03:55:00
11:15 PM,80.4,66.9,63,30.06,10.0,SW,8.1,-,N/A,,Clear,220,2013-08-26 04:15:00
11:35 PM,79.7,66.4,64,30.05,10.0,SSW,8.1,-,N/A,,Clear,210,2013-08-26 04:35:00
11:55 PM,79.2,66.4,65,30.03,10.0,SSW,9.2,-,N/A,,Clear,210,2013-08-26 04:55:00